sensor_id;sensor_type;location;lat;lon;timestamp;P1;durP1;ratioP1;P2;durP2;ratioP2
2868;SDS011;1442;47.448;8.582;2023-08-17T00:00:47;6.13;;;2.63;;
2868;SDS011;1442;47.448;8.582;2023-08-17T00:03:14;6.75;;;2.53;;
2868;SDS011;1442;47.448;8.582;2023-08-17T00:05:43;4.47;;;2.30;;
2868;SDS011;1442;47.448;8.582;2023-08-17T00:08:10;6.55;;;2.47;;
2868;SDS011;1442;47.448;8.582;2023-08-17T00:10:37;3.53;;;2.33;;
2868;SDS011;1442;47.448;8.582;2023-08-17T00:13:04;3.67;;;2.53;;
2868;SDS011;1442;47.448;8.582;2023-08-17T00:15:31;6.25;;;2.22;;
2868;SDS011;1442;47.448;8.582;2023-08-17T00:17:58;6.30;;;2.20;;
2868;SDS011;1442;47.448;8.582;2023-08-17T00:20:26;6.07;;;2.50;;
2868;SDS011;1442;47.448;8.582;2023-08-17T00:22:54;4.97;;;2.58;;
2868;SDS011;1442;47.448;8.582;2023-08-17T00:25:21;5.25;;;2.28;;
2868;SDS011;1442;47.448;8.582;2023-08-17T00:27:48;5.10;;;2.30;;
2868;SDS011;1442;47.448;8.582;2023-08-17T00:30:15;4.97;;;2.25;;
2868;SDS011;1442;47.448;8.582;2023-08-17T00:32:42;5.80;;;2.20;;
2868;SDS011;1442;47.448;8.582;2023-08-17T00:35:10;4.88;;;2.65;;
2868;SDS011;1442;47.448;8.582;2023-08-17T00:37:37;5.95;;;2.60;;
2868;SDS011;1442;47.448;8.582;2023-08-17T00:40:06;6.25;;;2.58;;
2868;SDS011;1442;47.448;8.582;2023-08-17T00:42:33;4.95;;;2.40;;
2868;SDS011;1442;47.448;8.582;2023-08-17T00:45:00;7.65;;;2.63;;
2868;SDS011;1442;47.448;8.582;2023-08-17T00:47:28;5.83;;;2.20;;
2868;SDS011;1442;47.448;8.582;2023-08-17T00:49:55;3.25;;;1.92;;
2868;SDS011;1442;47.448;8.582;2023-08-17T00:52:23;3.70;;;2.20;;
2868;SDS011;1442;47.448;8.582;2023-08-17T00:54:50;3.90;;;2.13;;
2868;SDS011;1442;47.448;8.582;2023-08-17T00:57:18;4.50;;;1.92;;
2868;SDS011;1442;47.448;8.582;2023-08-17T00:59:46;3.70;;;1.87;;
2868;SDS011;1442;47.448;8.582;2023-08-17T01:02:13;2.60;;;1.73;;
2868;SDS011;1442;47.448;8.582;2023-08-17T01:04:40;4.22;;;2.20;;
2868;SDS011;1442;47.448;8.582;2023-08-17T01:07:07;3.15;;;2.10;;
2868;SDS011;1442;47.448;8.582;2023-08-17T01:09:34;4.15;;;1.90;;
2868;SDS011;1442;47.448;8.582;2023-08-17T01:12:08;4.78;;;2.10;;
2868;SDS011;1442;47.448;8.582;2023-08-17T01:14:39;4.70;;;1.95;;
2868;SDS011;1442;47.448;8.582;2023-08-17T01:17:10;7.18;;;2.17;;
2868;SDS011;1442;47.448;8.582;2023-08-17T01:19:39;5.10;;;1.95;;
2868;SDS011;1442;47.448;8.582;2023-08-17T01:22:08;4.65;;;2.28;;
2868;SDS011;1442;47.448;8.582;2023-08-17T01:24:36;4.50;;;1.90;;
2868;SDS011;1442;47.448;8.582;2023-08-17T01:27:03;6.10;;;2.25;;
2868;SDS011;1442;47.448;8.582;2023-08-17T01:29:31;2.78;;;1.80;;
2868;SDS011;1442;47.448;8.582;2023-08-17T01:32:01;6.47;;;2.17;;
2868;SDS011;1442;47.448;8.582;2023-08-17T01:34:32;3.92;;;2.22;;
2868;SDS011;1442;47.448;8.582;2023-08-17T01:37:00;4.35;;;2.25;;
2868;SDS011;1442;47.448;8.582;2023-08-17T01:39:31;4.93;;;2.50;;
2868;SDS011;1442;47.448;8.582;2023-08-17T01:42:01;6.05;;;2.25;;
2868;SDS011;1442;47.448;8.582;2023-08-17T01:44:28;4.20;;;2.30;;
2868;SDS011;1442;47.448;8.582;2023-08-17T01:46:55;4.50;;;2.50;;
2868;SDS011;1442;47.448;8.582;2023-08-17T01:49:22;4.05;;;2.30;;
2868;SDS011;1442;47.448;8.582;2023-08-17T01:51:49;4.82;;;2.33;;
2868;SDS011;1442;47.448;8.582;2023-08-17T01:54:16;5.57;;;2.50;;
2868;SDS011;1442;47.448;8.582;2023-08-17T01:56:44;7.37;;;2.10;;
2868;SDS011;1442;47.448;8.582;2023-08-17T01:59:12;5.82;;;2.20;;
2868;SDS011;1442;47.448;8.582;2023-08-17T02:01:39;5.67;;;2.23;;
2868;SDS011;1442;47.448;8.582;2023-08-17T02:04:06;3.78;;;2.10;;
2868;SDS011;1442;47.448;8.582;2023-08-17T02:06:33;6.22;;;2.50;;
2868;SDS011;1442;47.448;8.582;2023-08-17T02:09:01;6.18;;;2.28;;
2868;SDS011;1442;47.448;8.582;2023-08-17T02:11:28;4.93;;;2.25;;
2868;SDS011;1442;47.448;8.582;2023-08-17T02:13:55;4.85;;;2.30;;
2868;SDS011;1442;47.448;8.582;2023-08-17T02:16:24;5.83;;;2.03;;
2868;SDS011;1442;47.448;8.582;2023-08-17T02:18:51;5.20;;;2.20;;
2868;SDS011;1442;47.448;8.582;2023-08-17T02:21:18;7.37;;;1.87;;
2868;SDS011;1442;47.448;8.582;2023-08-17T02:23:45;5.30;;;1.90;;
2868;SDS011;1442;47.448;8.582;2023-08-17T02:26:12;11.55;;;2.50;;
2868;SDS011;1442;47.448;8.582;2023-08-17T02:28:39;15.63;;;2.67;;
2868;SDS011;1442;47.448;8.582;2023-08-17T02:31:06;13.15;;;2.55;;
2868;SDS011;1442;47.448;8.582;2023-08-17T02:33:35;10.43;;;2.55;;
2868;SDS011;1442;47.448;8.582;2023-08-17T02:36:03;7.82;;;2.30;;
2868;SDS011;1442;47.448;8.582;2023-08-17T02:38:30;5.38;;;2.38;;
2868;SDS011;1442;47.448;8.582;2023-08-17T02:40:57;2.67;;;1.92;;
2868;SDS011;1442;47.448;8.582;2023-08-17T02:43:24;5.45;;;1.88;;
2868;SDS011;1442;47.448;8.582;2023-08-17T02:45:51;3.33;;;1.93;;
2868;SDS011;1442;47.448;8.582;2023-08-17T02:48:18;4.68;;;1.92;;
2868;SDS011;1442;47.448;8.582;2023-08-17T02:50:47;5.57;;;1.98;;
2868;SDS011;1442;47.448;8.582;2023-08-17T02:53:14;4.18;;;2.08;;
2868;SDS011;1442;47.448;8.582;2023-08-17T02:55:41;2.88;;;1.83;;
2868;SDS011;1442;47.448;8.582;2023-08-17T02:58:08;6.30;;;1.63;;
2868;SDS011;1442;47.448;8.582;2023-08-17T03:00:35;4.53;;;1.83;;
2868;SDS011;1442;47.448;8.582;2023-08-17T03:03:02;5.35;;;1.98;;
2868;SDS011;1442;47.448;8.582;2023-08-17T03:05:30;3.77;;;2.30;;
2868;SDS011;1442;47.448;8.582;2023-08-17T03:07:58;4.20;;;2.40;;
2868;SDS011;1442;47.448;8.582;2023-08-17T03:10:25;3.23;;;2.00;;
2868;SDS011;1442;47.448;8.582;2023-08-17T03:12:52;2.90;;;1.88;;
2868;SDS011;1442;47.448;8.582;2023-08-17T03:15:20;3.90;;;2.10;;
2868;SDS011;1442;47.448;8.582;2023-08-17T03:17:47;4.20;;;2.20;;
2868;SDS011;1442;47.448;8.582;2023-08-17T03:20:14;6.63;;;2.17;;
2868;SDS011;1442;47.448;8.582;2023-08-17T03:22:41;3.55;;;1.95;;
2868;SDS011;1442;47.448;8.582;2023-08-17T03:25:10;3.78;;;2.00;;
2868;SDS011;1442;47.448;8.582;2023-08-17T03:27:37;3.47;;;1.95;;
2868;SDS011;1442;47.448;8.582;2023-08-17T03:30:04;6.67;;;2.27;;
2868;SDS011;1442;47.448;8.582;2023-08-17T03:32:32;6.65;;;2.10;;
2868;SDS011;1442;47.448;8.582;2023-08-17T03:34:59;3.47;;;2.03;;
2868;SDS011;1442;47.448;8.582;2023-08-17T03:37:26;5.80;;;2.10;;
2868;SDS011;1442;47.448;8.582;2023-08-17T03:39:53;5.50;;;2.20;;
2868;SDS011;1442;47.448;8.582;2023-08-17T03:42:22;3.92;;;2.00;;
2868;SDS011;1442;47.448;8.582;2023-08-17T03:44:49;6.78;;;2.00;;
2868;SDS011;1442;47.448;8.582;2023-08-17T03:47:17;5.03;;;2.25;;
2868;SDS011;1442;47.448;8.582;2023-08-17T03:49:44;7.40;;;2.17;;
2868;SDS011;1442;47.448;8.582;2023-08-17T03:52:11;6.65;;;2.05;;
2868;SDS011;1442;47.448;8.582;2023-08-17T03:54:38;3.83;;;2.20;;
2868;SDS011;1442;47.448;8.582;2023-08-17T03:57:05;3.40;;;2.20;;
2868;SDS011;1442;47.448;8.582;2023-08-17T03:59:34;6.37;;;2.37;;
2868;SDS011;1442;47.448;8.582;2023-08-17T04:02:01;5.97;;;2.42;;
2868;SDS011;1442;47.448;8.582;2023-08-17T04:04:28;5.40;;;2.47;;
2868;SDS011;1442;47.448;8.582;2023-08-17T04:06:55;4.63;;;2.75;;
2868;SDS011;1442;47.448;8.582;2023-08-17T04:09:23;6.70;;;2.50;;
2868;SDS011;1442;47.448;8.582;2023-08-17T04:11:50;4.40;;;2.33;;
2868;SDS011;1442;47.448;8.582;2023-08-17T04:14:17;5.95;;;2.25;;
2868;SDS011;1442;47.448;8.582;2023-08-17T04:16:45;9.03;;;2.50;;
2868;SDS011;1442;47.448;8.582;2023-08-17T04:19:12;10.32;;;2.53;;
2868;SDS011;1442;47.448;8.582;2023-08-17T04:21:40;5.63;;;2.40;;
2868;SDS011;1442;47.448;8.582;2023-08-17T04:24:07;6.68;;;2.33;;
2868;SDS011;1442;47.448;8.582;2023-08-17T04:26:34;5.00;;;2.35;;
2868;SDS011;1442;47.448;8.582;2023-08-17T04:29:01;3.95;;;2.60;;
2868;SDS011;1442;47.448;8.582;2023-08-17T04:31:28;8.15;;;2.53;;
2868;SDS011;1442;47.448;8.582;2023-08-17T04:33:57;6.18;;;2.20;;
2868;SDS011;1442;47.448;8.582;2023-08-17T04:36:24;4.45;;;2.20;;
2868;SDS011;1442;47.448;8.582;2023-08-17T04:38:51;7.55;;;2.85;;
2868;SDS011;1442;47.448;8.582;2023-08-17T04:41:18;3.30;;;2.42;;
2868;SDS011;1442;47.448;8.582;2023-08-17T04:43:45;6.20;;;2.70;;
2868;SDS011;1442;47.448;8.582;2023-08-17T04:46:14;5.97;;;2.13;;
2868;SDS011;1442;47.448;8.582;2023-08-17T04:48:41;6.50;;;2.63;;
2868;SDS011;1442;47.448;8.582;2023-08-17T04:51:10;5.57;;;2.58;;
2868;SDS011;1442;47.448;8.582;2023-08-17T04:53:37;7.95;;;2.50;;
2868;SDS011;1442;47.448;8.582;2023-08-17T04:56:04;6.82;;;2.60;;
2868;SDS011;1442;47.448;8.582;2023-08-17T04:58:32;5.15;;;2.53;;
2868;SDS011;1442;47.448;8.582;2023-08-17T05:00:59;6.47;;;2.65;;
2868;SDS011;1442;47.448;8.582;2023-08-17T05:03:26;4.73;;;2.60;;
2868;SDS011;1442;47.448;8.582;2023-08-17T05:05:53;5.82;;;2.25;;
2868;SDS011;1442;47.448;8.582;2023-08-17T05:08:21;5.18;;;2.22;;
2868;SDS011;1442;47.448;8.582;2023-08-17T05:10:49;4.18;;;2.50;;
2868;SDS011;1442;47.448;8.582;2023-08-17T05:13:16;6.65;;;2.78;;
2868;SDS011;1442;47.448;8.582;2023-08-17T05:15:43;4.55;;;2.47;;
2868;SDS011;1442;47.448;8.582;2023-08-17T05:18:11;6.07;;;2.60;;
2868;SDS011;1442;47.448;8.582;2023-08-17T05:20:38;6.47;;;2.63;;
2868;SDS011;1442;47.448;8.582;2023-08-17T05:23:05;5.90;;;2.65;;
2868;SDS011;1442;47.448;8.582;2023-08-17T05:25:34;9.15;;;2.63;;
2868;SDS011;1442;47.448;8.582;2023-08-17T05:28:01;3.70;;;2.70;;
2868;SDS011;1442;47.448;8.582;2023-08-17T05:30:28;10.75;;;3.08;;
2868;SDS011;1442;47.448;8.582;2023-08-17T05:32:55;8.77;;;2.90;;
2868;SDS011;1442;47.448;8.582;2023-08-17T05:35:22;12.65;;;3.30;;
2868;SDS011;1442;47.448;8.582;2023-08-17T05:37:49;14.00;;;3.30;;
2868;SDS011;1442;47.448;8.582;2023-08-17T05:40:17;13.37;;;3.10;;
2868;SDS011;1442;47.448;8.582;2023-08-17T05:42:45;12.07;;;2.85;;
2868;SDS011;1442;47.448;8.582;2023-08-17T05:45:12;6.15;;;2.35;;
2868;SDS011;1442;47.448;8.582;2023-08-17T05:47:39;7.40;;;2.70;;
2868;SDS011;1442;47.448;8.582;2023-08-17T05:50:07;11.65;;;2.70;;
2868;SDS011;1442;47.448;8.582;2023-08-17T05:52:34;6.65;;;2.50;;
2868;SDS011;1442;47.448;8.582;2023-08-17T05:55:01;8.63;;;3.13;;
2868;SDS011;1442;47.448;8.582;2023-08-17T05:57:29;7.30;;;3.00;;
2868;SDS011;1442;47.448;8.582;2023-08-17T05:59:57;6.78;;;2.53;;
2868;SDS011;1442;47.448;8.582;2023-08-17T06:02:24;8.65;;;3.13;;
2868;SDS011;1442;47.448;8.582;2023-08-17T06:04:51;6.13;;;2.65;;
2868;SDS011;1442;47.448;8.582;2023-08-17T06:07:18;7.80;;;2.80;;
2868;SDS011;1442;47.448;8.582;2023-08-17T06:09:46;8.23;;;3.50;;
2868;SDS011;1442;47.448;8.582;2023-08-17T06:12:13;9.13;;;3.25;;
2868;SDS011;1442;47.448;8.582;2023-08-17T06:14:40;7.78;;;3.05;;
2868;SDS011;1442;47.448;8.582;2023-08-17T06:17:08;6.55;;;2.83;;
2868;SDS011;1442;47.448;8.582;2023-08-17T06:19:36;7.82;;;2.70;;
2868;SDS011;1442;47.448;8.582;2023-08-17T06:22:04;4.32;;;2.70;;
2868;SDS011;1442;47.448;8.582;2023-08-17T06:24:31;5.25;;;2.60;;
2868;SDS011;1442;47.448;8.582;2023-08-17T06:26:58;5.32;;;2.40;;
2868;SDS011;1442;47.448;8.582;2023-08-17T06:29:25;4.35;;;2.42;;
2868;SDS011;1442;47.448;8.582;2023-08-17T06:31:53;5.72;;;2.53;;
2868;SDS011;1442;47.448;8.582;2023-08-17T06:34:21;3.25;;;2.00;;
2868;SDS011;1442;47.448;8.582;2023-08-17T06:36:56;4.13;;;2.42;;
2868;SDS011;1442;47.448;8.582;2023-08-17T06:39:23;5.15;;;2.33;;
2868;SDS011;1442;47.448;8.582;2023-08-17T06:41:50;6.80;;;2.60;;
2868;SDS011;1442;47.448;8.582;2023-08-17T06:44:17;3.95;;;2.40;;
2868;SDS011;1442;47.448;8.582;2023-08-17T06:46:45;5.18;;;2.58;;
2868;SDS011;1442;47.448;8.582;2023-08-17T06:49:12;6.10;;;2.65;;
2868;SDS011;1442;47.448;8.582;2023-08-17T06:51:40;4.95;;;2.67;;
2868;SDS011;1442;47.448;8.582;2023-08-17T06:54:07;6.95;;;2.65;;
2868;SDS011;1442;47.448;8.582;2023-08-17T06:56:35;5.07;;;2.50;;
2868;SDS011;1442;47.448;8.582;2023-08-17T06:59:02;8.88;;;2.45;;
2868;SDS011;1442;47.448;8.582;2023-08-17T07:01:29;5.07;;;2.33;;
2868;SDS011;1442;47.448;8.582;2023-08-17T07:03:56;3.40;;;2.70;;
2868;SDS011;1442;47.448;8.582;2023-08-17T07:06:24;5.60;;;2.58;;
2868;SDS011;1442;47.448;8.582;2023-08-17T07:08:52;6.13;;;2.83;;
2868;SDS011;1442;47.448;8.582;2023-08-17T07:11:19;7.85;;;2.40;;
2868;SDS011;1442;47.448;8.582;2023-08-17T07:13:46;5.07;;;2.60;;
2868;SDS011;1442;47.448;8.582;2023-08-17T07:16:14;4.93;;;2.53;;
2868;SDS011;1442;47.448;8.582;2023-08-17T07:18:41;10.85;;;3.08;;
2868;SDS011;1442;47.448;8.582;2023-08-17T07:21:08;6.38;;;2.55;;
2868;SDS011;1442;47.448;8.582;2023-08-17T07:23:35;5.90;;;2.67;;
2868;SDS011;1442;47.448;8.582;2023-08-17T07:26:04;6.27;;;2.40;;
2868;SDS011;1442;47.448;8.582;2023-08-17T07:28:31;5.00;;;2.40;;
2868;SDS011;1442;47.448;8.582;2023-08-17T07:30:58;7.88;;;2.58;;
2868;SDS011;1442;47.448;8.582;2023-08-17T07:33:25;5.15;;;2.83;;
2868;SDS011;1442;47.448;8.582;2023-08-17T07:35:52;7.22;;;2.50;;
2868;SDS011;1442;47.448;8.582;2023-08-17T07:38:23;7.10;;;2.78;;
2868;SDS011;1442;47.448;8.582;2023-08-17T07:40:50;8.20;;;3.22;;
2868;SDS011;1442;47.448;8.582;2023-08-17T07:43:19;6.63;;;3.10;;
2868;SDS011;1442;47.448;8.582;2023-08-17T07:45:46;8.45;;;3.30;;
2868;SDS011;1442;47.448;8.582;2023-08-17T07:48:19;7.20;;;3.47;;
2868;SDS011;1442;47.448;8.582;2023-08-17T07:50:47;7.90;;;3.70;;
2868;SDS011;1442;47.448;8.582;2023-08-17T07:53:15;6.13;;;3.10;;
2868;SDS011;1442;47.448;8.582;2023-08-17T07:55:42;7.10;;;3.20;;
2868;SDS011;1442;47.448;8.582;2023-08-17T07:58:09;10.27;;;3.40;;
2868;SDS011;1442;47.448;8.582;2023-08-17T08:00:38;8.40;;;3.10;;
2868;SDS011;1442;47.448;8.582;2023-08-17T08:03:05;9.68;;;3.10;;
2868;SDS011;1442;47.448;8.582;2023-08-17T08:05:32;9.25;;;3.42;;
2868;SDS011;1442;47.448;8.582;2023-08-17T08:07:59;7.95;;;3.10;;
2868;SDS011;1442;47.448;8.582;2023-08-17T08:10:26;7.78;;;3.45;;
2868;SDS011;1442;47.448;8.582;2023-08-17T08:12:54;10.82;;;3.92;;
2868;SDS011;1442;47.448;8.582;2023-08-17T08:15:21;8.05;;;3.47;;
2868;SDS011;1442;47.448;8.582;2023-08-17T08:17:50;6.65;;;3.50;;
2868;SDS011;1442;47.448;8.582;2023-08-17T08:20:17;8.70;;;3.60;;
2868;SDS011;1442;47.448;8.582;2023-08-17T08:22:44;6.88;;;3.72;;
2868;SDS011;1442;47.448;8.582;2023-08-17T08:25:11;7.75;;;3.83;;
2868;SDS011;1442;47.448;8.582;2023-08-17T08:27:38;7.47;;;3.50;;
2868;SDS011;1442;47.448;8.582;2023-08-17T08:30:06;5.57;;;2.90;;
2868;SDS011;1442;47.448;8.582;2023-08-17T08:32:33;5.95;;;3.30;;
2868;SDS011;1442;47.448;8.582;2023-08-17T08:35:02;8.30;;;3.70;;
2868;SDS011;1442;47.448;8.582;2023-08-17T08:37:29;5.32;;;3.28;;
2868;SDS011;1442;47.448;8.582;2023-08-17T08:39:56;5.85;;;3.10;;
2868;SDS011;1442;47.448;8.582;2023-08-17T08:42:23;4.60;;;2.90;;
2868;SDS011;1442;47.448;8.582;2023-08-17T08:44:51;7.70;;;3.42;;
2868;SDS011;1442;47.448;8.582;2023-08-17T08:47:18;6.22;;;3.00;;
2868;SDS011;1442;47.448;8.582;2023-08-17T08:49:49;5.68;;;3.38;;
2868;SDS011;1442;47.448;8.582;2023-08-17T08:52:19;9.40;;;3.95;;
2868;SDS011;1442;47.448;8.582;2023-08-17T08:54:49;7.95;;;3.90;;
2868;SDS011;1442;47.448;8.582;2023-08-17T08:57:17;9.23;;;3.70;;
2868;SDS011;1442;47.448;8.582;2023-08-17T08:59:44;5.50;;;3.80;;
2868;SDS011;1442;47.448;8.582;2023-08-17T09:02:14;7.75;;;3.90;;
2868;SDS011;1442;47.448;8.582;2023-08-17T09:04:41;7.87;;;3.67;;
2868;SDS011;1442;47.448;8.582;2023-08-17T09:07:08;9.33;;;4.30;;
2868;SDS011;1442;47.448;8.582;2023-08-17T09:09:37;11.33;;;4.40;;
2868;SDS011;1442;47.448;8.582;2023-08-17T09:12:05;6.90;;;4.00;;
2868;SDS011;1442;47.448;8.582;2023-08-17T09:14:34;7.80;;;4.00;;
2868;SDS011;1442;47.448;8.582;2023-08-17T09:17:02;6.32;;;3.83;;
2868;SDS011;1442;47.448;8.582;2023-08-17T09:19:31;9.18;;;3.83;;
2868;SDS011;1442;47.448;8.582;2023-08-17T09:21:58;6.97;;;4.13;;
2868;SDS011;1442;47.448;8.582;2023-08-17T09:24:33;7.75;;;4.20;;
2868;SDS011;1442;47.448;8.582;2023-08-17T09:27:02;13.40;;;4.10;;
2868;SDS011;1442;47.448;8.582;2023-08-17T09:29:30;7.72;;;4.03;;
2868;SDS011;1442;47.448;8.582;2023-08-17T09:32:03;11.18;;;3.92;;
2868;SDS011;1442;47.448;8.582;2023-08-17T09:34:31;9.68;;;4.15;;
2868;SDS011;1442;47.448;8.582;2023-08-17T09:37:02;7.32;;;4.38;;
2868;SDS011;1442;47.448;8.582;2023-08-17T09:39:29;6.72;;;4.22;;
2868;SDS011;1442;47.448;8.582;2023-08-17T09:41:56;8.10;;;3.78;;
2868;SDS011;1442;47.448;8.582;2023-08-17T09:44:24;7.18;;;3.97;;
2868;SDS011;1442;47.448;8.582;2023-08-17T09:46:54;7.03;;;4.18;;
2868;SDS011;1442;47.448;8.582;2023-08-17T09:49:22;7.15;;;4.18;;
2868;SDS011;1442;47.448;8.582;2023-08-17T09:51:49;7.97;;;4.18;;
2868;SDS011;1442;47.448;8.582;2023-08-17T09:54:20;9.45;;;4.38;;
2868;SDS011;1442;47.448;8.582;2023-08-17T09:56:48;9.05;;;4.35;;
2868;SDS011;1442;47.448;8.582;2023-08-17T09:59:16;6.40;;;4.10;;
2868;SDS011;1442;47.448;8.582;2023-08-17T10:01:45;8.95;;;4.35;;
2868;SDS011;1442;47.448;8.582;2023-08-17T10:04:13;8.63;;;4.75;;
2868;SDS011;1442;47.448;8.582;2023-08-17T10:06:41;6.10;;;4.43;;
2868;SDS011;1442;47.448;8.582;2023-08-17T10:09:08;10.35;;;4.88;;
2868;SDS011;1442;47.448;8.582;2023-08-17T10:11:36;9.05;;;4.90;;
2868;SDS011;1442;47.448;8.582;2023-08-17T10:14:05;8.57;;;4.65;;
2868;SDS011;1442;47.448;8.582;2023-08-17T10:16:38;11.55;;;5.13;;
2868;SDS011;1442;47.448;8.582;2023-08-17T10:19:10;9.95;;;4.78;;
2868;SDS011;1442;47.448;8.582;2023-08-17T10:21:39;9.40;;;4.68;;
2868;SDS011;1442;47.448;8.582;2023-08-17T10:24:07;9.50;;;5.13;;
2868;SDS011;1442;47.448;8.582;2023-08-17T10:26:34;9.50;;;4.95;;
2868;SDS011;1442;47.448;8.582;2023-08-17T10:29:02;8.93;;;5.00;;
2868;SDS011;1442;47.448;8.582;2023-08-17T10:31:29;9.75;;;4.97;;
2868;SDS011;1442;47.448;8.582;2023-08-17T10:33:56;7.97;;;5.03;;
2868;SDS011;1442;47.448;8.582;2023-08-17T10:36:25;8.02;;;5.20;;
2868;SDS011;1442;47.448;8.582;2023-08-17T10:41:45;9.60;;;4.93;;
2868;SDS011;1442;47.448;8.582;2023-08-17T10:44:13;9.05;;;5.10;;
2868;SDS011;1442;47.448;8.582;2023-08-17T10:46:40;7.88;;;5.30;;
2868;SDS011;1442;47.448;8.582;2023-08-17T10:49:24;9.85;;;5.20;;
2868;SDS011;1442;47.448;8.582;2023-08-17T10:52:06;13.10;;;5.00;;
2868;SDS011;1442;47.448;8.582;2023-08-17T10:54:36;7.50;;;4.65;;
2868;SDS011;1442;47.448;8.582;2023-08-17T11:00:04;9.48;;;5.10;;
2868;SDS011;1442;47.448;8.582;2023-08-17T11:02:32;5.22;;;4.70;;
2868;SDS011;1442;47.448;8.582;2023-08-17T11:05:00;8.82;;;5.00;;
2868;SDS011;1442;47.448;8.582;2023-08-17T11:07:29;7.18;;;4.63;;
2868;SDS011;1442;47.448;8.582;2023-08-17T11:10:10;7.03;;;4.60;;
2868;SDS011;1442;47.448;8.582;2023-08-17T11:12:38;8.75;;;4.78;;
2868;SDS011;1442;47.448;8.582;2023-08-17T11:15:05;8.40;;;4.90;;
2868;SDS011;1442;47.448;8.582;2023-08-17T11:17:32;10.23;;;5.18;;
2868;SDS011;1442;47.448;8.582;2023-08-17T11:19:59;7.47;;;4.72;;
2868;SDS011;1442;47.448;8.582;2023-08-17T11:22:27;9.03;;;4.53;;
2868;SDS011;1442;47.448;8.582;2023-08-17T11:24:56;8.17;;;4.30;;
2868;SDS011;1442;47.448;8.582;2023-08-17T11:27:23;6.90;;;4.20;;
2868;SDS011;1442;47.448;8.582;2023-08-17T11:29:50;12.57;;;4.37;;
2868;SDS011;1442;47.448;8.582;2023-08-17T11:32:17;8.13;;;4.10;;
2868;SDS011;1442;47.448;8.582;2023-08-17T11:34:44;7.85;;;3.72;;
2868;SDS011;1442;47.448;8.582;2023-08-17T11:37:12;9.38;;;4.20;;
2868;SDS011;1442;47.448;8.582;2023-08-17T11:39:39;8.90;;;4.50;;
2868;SDS011;1442;47.448;8.582;2023-08-17T11:42:08;8.18;;;4.20;;
2868;SDS011;1442;47.448;8.582;2023-08-17T11:44:35;5.30;;;3.95;;
2868;SDS011;1442;47.448;8.582;2023-08-17T11:47:02;8.15;;;3.83;;
2868;SDS011;1442;47.448;8.582;2023-08-17T11:49:30;9.10;;;4.18;;
2868;SDS011;1442;47.448;8.582;2023-08-17T11:51:57;6.68;;;3.90;;
2868;SDS011;1442;47.448;8.582;2023-08-17T11:54:25;6.43;;;4.20;;
2868;SDS011;1442;47.448;8.582;2023-08-17T11:56:52;8.27;;;4.50;;
2868;SDS011;1442;47.448;8.582;2023-08-17T11:59:20;10.55;;;4.10;;
2868;SDS011;1442;47.448;8.582;2023-08-17T12:01:48;7.15;;;3.70;;
2868;SDS011;1442;47.448;8.582;2023-08-17T12:04:15;6.25;;;3.80;;
2868;SDS011;1442;47.448;8.582;2023-08-17T12:06:43;6.47;;;3.90;;
2868;SDS011;1442;47.448;8.582;2023-08-17T12:09:10;6.47;;;3.83;;
2868;SDS011;1442;47.448;8.582;2023-08-17T12:11:39;7.60;;;4.20;;
2868;SDS011;1442;47.448;8.582;2023-08-17T12:14:09;9.00;;;3.72;;
2868;SDS011;1442;47.448;8.582;2023-08-17T12:16:46;6.70;;;3.88;;
2868;SDS011;1442;47.448;8.582;2023-08-17T12:19:14;10.95;;;3.83;;
2868;SDS011;1442;47.448;8.582;2023-08-17T12:21:41;6.80;;;3.58;;
2868;SDS011;1442;47.448;8.582;2023-08-17T12:24:09;11.30;;;3.93;;
2868;SDS011;1442;47.448;8.582;2023-08-17T12:26:40;4.10;;;3.55;;
2868;SDS011;1442;47.448;8.582;2023-08-17T12:29:08;8.90;;;3.97;;
2868;SDS011;1442;47.448;8.582;2023-08-17T12:31:35;5.70;;;3.70;;
2868;SDS011;1442;47.448;8.582;2023-08-17T12:34:04;5.63;;;3.90;;
2868;SDS011;1442;47.448;8.582;2023-08-17T12:36:31;11.90;;;4.40;;
2868;SDS011;1442;47.448;8.582;2023-08-17T12:39:00;6.38;;;4.28;;
2868;SDS011;1442;47.448;8.582;2023-08-17T12:41:28;7.07;;;3.90;;
2868;SDS011;1442;47.448;8.582;2023-08-17T12:43:56;11.18;;;4.28;;
2868;SDS011;1442;47.448;8.582;2023-08-17T12:46:24;11.13;;;4.32;;
2868;SDS011;1442;47.448;8.582;2023-08-17T12:48:51;8.87;;;4.63;;
2868;SDS011;1442;47.448;8.582;2023-08-17T12:51:19;6.55;;;4.20;;
2868;SDS011;1442;47.448;8.582;2023-08-17T12:53:46;9.38;;;4.20;;
2868;SDS011;1442;47.448;8.582;2023-08-17T12:56:13;10.97;;;4.30;;
2868;SDS011;1442;47.448;8.582;2023-08-17T12:58:41;6.07;;;3.95;;
2868;SDS011;1442;47.448;8.582;2023-08-17T13:01:08;8.32;;;4.80;;
2868;SDS011;1442;47.448;8.582;2023-08-17T13:03:35;6.85;;;4.13;;
2868;SDS011;1442;47.448;8.582;2023-08-17T13:06:02;10.38;;;4.35;;
2868;SDS011;1442;47.448;8.582;2023-08-17T13:08:31;10.35;;;4.15;;
2868;SDS011;1442;47.448;8.582;2023-08-17T13:10:58;5.63;;;3.97;;
2868;SDS011;1442;47.448;8.582;2023-08-17T13:13:25;10.20;;;4.15;;
2868;SDS011;1442;47.448;8.582;2023-08-17T13:15:52;10.20;;;4.25;;
2868;SDS011;1442;47.448;8.582;2023-08-17T13:18:19;7.32;;;3.90;;
2868;SDS011;1442;47.448;8.582;2023-08-17T13:20:46;10.75;;;3.85;;
2868;SDS011;1442;47.448;8.582;2023-08-17T13:23:13;9.38;;;3.63;;
2868;SDS011;1442;47.448;8.582;2023-08-17T13:25:42;7.15;;;3.90;;
2868;SDS011;1442;47.448;8.582;2023-08-17T13:28:09;10.23;;;3.15;;
2868;SDS011;1442;47.448;8.582;2023-08-17T13:30:37;8.25;;;3.30;;
2868;SDS011;1442;47.448;8.582;2023-08-17T13:33:04;7.85;;;3.38;;
2868;SDS011;1442;47.448;8.582;2023-08-17T13:35:32;7.38;;;3.40;;
2868;SDS011;1442;47.448;8.582;2023-08-17T13:37:59;8.65;;;3.42;;
2868;SDS011;1442;47.448;8.582;2023-08-17T13:40:29;6.95;;;3.38;;
2868;SDS011;1442;47.448;8.582;2023-08-17T13:42:57;7.20;;;3.45;;
2868;SDS011;1442;47.448;8.582;2023-08-17T13:45:25;6.73;;;3.63;;
2868;SDS011;1442;47.448;8.582;2023-08-17T13:47:52;8.65;;;3.03;;
2868;SDS011;1442;47.448;8.582;2023-08-17T13:50:19;5.45;;;3.28;;
2868;SDS011;1442;47.448;8.582;2023-08-17T13:52:46;5.97;;;3.10;;
2868;SDS011;1442;47.448;8.582;2023-08-17T13:55:14;9.20;;;3.17;;
2868;SDS011;1442;47.448;8.582;2023-08-17T13:57:41;5.32;;;2.95;;
2868;SDS011;1442;47.448;8.582;2023-08-17T14:00:10;7.23;;;3.10;;
2868;SDS011;1442;47.448;8.582;2023-08-17T14:02:38;8.63;;;3.03;;
2868;SDS011;1442;47.448;8.582;2023-08-17T14:05:05;6.70;;;3.03;;
2868;SDS011;1442;47.448;8.582;2023-08-17T14:07:32;8.38;;;3.42;;
2868;SDS011;1442;47.448;8.582;2023-08-17T14:09:59;10.82;;;3.33;;
2868;SDS011;1442;47.448;8.582;2023-08-17T14:12:27;8.38;;;2.83;;
2868;SDS011;1442;47.448;8.582;2023-08-17T14:14:54;8.15;;;3.05;;
2868;SDS011;1442;47.448;8.582;2023-08-17T14:17:23;8.57;;;3.25;;
2868;SDS011;1442;47.448;8.582;2023-08-17T14:19:50;7.67;;;3.17;;
2868;SDS011;1442;47.448;8.582;2023-08-17T14:22:17;8.57;;;3.45;;
2868;SDS011;1442;47.448;8.582;2023-08-17T14:24:44;11.63;;;4.25;;
2868;SDS011;1442;47.448;8.582;2023-08-17T14:27:11;7.03;;;3.80;;
2868;SDS011;1442;47.448;8.582;2023-08-17T14:29:39;8.93;;;4.32;;
2868;SDS011;1442;47.448;8.582;2023-08-17T14:32:06;10.13;;;4.20;;
2868;SDS011;1442;47.448;8.582;2023-08-17T14:34:34;7.00;;;4.07;;
2868;SDS011;1442;47.448;8.582;2023-08-17T14:37:01;5.57;;;3.50;;
2868;SDS011;1442;47.448;8.582;2023-08-17T14:39:28;9.85;;;4.22;;
2868;SDS011;1442;47.448;8.582;2023-08-17T14:41:56;6.65;;;3.45;;
2868;SDS011;1442;47.448;8.582;2023-08-17T14:44:23;7.13;;;3.97;;
2868;SDS011;1442;47.448;8.582;2023-08-17T14:46:51;7.28;;;3.60;;
2868;SDS011;1442;47.448;8.582;2023-08-17T14:49:18;6.60;;;3.50;;
2868;SDS011;1442;47.448;8.582;2023-08-17T14:51:46;5.65;;;3.10;;
2868;SDS011;1442;47.448;8.582;2023-08-17T14:54:13;5.95;;;3.65;;
2868;SDS011;1442;47.448;8.582;2023-08-17T14:56:40;8.27;;;3.60;;
2868;SDS011;1442;47.448;8.582;2023-08-17T14:59:09;8.07;;;3.37;;
2868;SDS011;1442;47.448;8.582;2023-08-17T15:01:37;6.38;;;3.20;;
2868;SDS011;1442;47.448;8.582;2023-08-17T15:04:04;4.78;;;3.22;;
2868;SDS011;1442;47.448;8.582;2023-08-17T15:06:31;5.65;;;3.08;;
2868;SDS011;1442;47.448;8.582;2023-08-17T15:08:59;7.47;;;2.80;;
2868;SDS011;1442;47.448;8.582;2023-08-17T15:11:28;8.88;;;3.25;;
2868;SDS011;1442;47.448;8.582;2023-08-17T15:13:55;8.98;;;3.33;;
2868;SDS011;1442;47.448;8.582;2023-08-17T15:16:22;6.75;;;2.92;;
2868;SDS011;1442;47.448;8.582;2023-08-17T15:18:52;7.47;;;2.90;;
2868;SDS011;1442;47.448;8.582;2023-08-17T15:21:20;8.90;;;3.20;;
2868;SDS011;1442;47.448;8.582;2023-08-17T15:23:47;6.82;;;3.10;;